sensor_id;sensor_type;location;lat;lon;timestamp;temperature;humidity
68691;DHT22;55675;49.588;8.640;2022-10-13T00:00:27;12.50;95.10
68691;DHT22;55675;49.588;8.640;2022-10-13T00:02:52;12.50;95.20
68691;DHT22;55675;49.588;8.640;2022-10-13T00:05:18;12.50;95.20
68691;DHT22;55675;49.588;8.640;2022-10-13T00:07:44;12.60;95.20
68691;DHT22;55675;49.588;8.640;2022-10-13T00:10:09;12.60;95.20
68691;DHT22;55675;49.588;8.640;2022-10-13T00:12:36;12.60;95.10
68691;DHT22;55675;49.588;8.640;2022-10-13T00:15:03;12.60;95.00
68691;DHT22;55675;49.588;8.640;2022-10-13T00:17:30;12.60;95.00
68691;DHT22;55675;49.588;8.640;2022-10-13T00:19:56;12.70;94.90
68691;DHT22;55675;49.588;8.640;2022-10-13T00:22:22;12.70;94.80
68691;DHT22;55675;49.588;8.640;2022-10-13T00:24:51;12.70;94.80
68691;DHT22;55675;49.588;8.640;2022-10-13T00:27:17;12.80;94.70
68691;DHT22;55675;49.588;8.640;2022-10-13T00:29:42;12.70;94.70
68691;DHT22;55675;49.588;8.640;2022-10-13T00:32:08;12.70;94.70
68691;DHT22;55675;49.588;8.640;2022-10-13T00:34:35;12.80;94.70
68691;DHT22;55675;49.588;8.640;2022-10-13T00:37:01;12.70;94.60
68691;DHT22;55675;49.588;8.640;2022-10-13T00:39:26;12.70;94.50
68691;DHT22;55675;49.588;8.640;2022-10-13T00:41:52;12.70;94.60
68691;DHT22;55675;49.588;8.640;2022-10-13T00:47:21;12.60;94.50
68691;DHT22;55675;49.588;8.640;2022-10-13T00:49:47;12.60;94.60
68691;DHT22;55675;49.588;8.640;2022-10-13T00:52:14;12.50;94.60
68691;DHT22;55675;49.588;8.640;2022-10-13T00:54:41;12.50;94.70
68691;DHT22;55675;49.588;8.640;2022-10-13T00:57:08;12.50;95.00
68691;DHT22;55675;49.588;8.640;2022-10-13T00:59:35;12.40;95.20
68691;DHT22;55675;49.588;8.640;2022-10-13T01:02:02;12.40;95.20
68691;DHT22;55675;49.588;8.640;2022-10-13T01:04:33;12.50;95.20
68691;DHT22;55675;49.588;8.640;2022-10-13T01:07:02;12.60;95.20
68691;DHT22;55675;49.588;8.640;2022-10-13T01:09:27;12.50;95.20
68691;DHT22;55675;49.588;8.640;2022-10-13T01:17:27;12.50;95.70
68691;DHT22;55675;49.588;8.640;2022-10-13T01:32:00;12.60;95.50
68691;DHT22;55675;49.588;8.640;2022-10-13T01:34:19;12.60;95.40
68691;DHT22;55675;49.588;8.640;2022-10-13T01:36:53;12.60;95.40
68691;DHT22;55675;49.588;8.640;2022-10-13T01:39:26;12.70;95.40
68691;DHT22;55675;49.588;8.640;2022-10-13T01:42:00;12.70;95.40
68691;DHT22;55675;49.588;8.640;2022-10-13T01:44:38;12.70;95.70
68691;DHT22;55675;49.588;8.640;2022-10-13T01:47:06;12.70;95.30
68691;DHT22;55675;49.588;8.640;2022-10-13T01:49:34;12.70;95.30
68691;DHT22;55675;49.588;8.640;2022-10-13T01:52:03;12.70;95.40
68691;DHT22;55675;49.588;8.640;2022-10-13T01:54:31;12.80;95.30
68691;DHT22;55675;49.588;8.640;2022-10-13T01:56:57;12.80;95.20
68691;DHT22;55675;49.588;8.640;2022-10-13T01:59:24;12.80;95.20
68691;DHT22;55675;49.588;8.640;2022-10-13T02:02:02;12.80;95.20
68691;DHT22;55675;49.588;8.640;2022-10-13T02:07:38;12.80;95.30
68691;DHT22;55675;49.588;8.640;2022-10-13T02:15:22;12.80;95.30
68691;DHT22;55675;49.588;8.640;2022-10-13T02:17:50;12.70;95.20
68691;DHT22;55675;49.588;8.640;2022-10-13T02:20:17;12.70;95.20
68691;DHT22;55675;49.588;8.640;2022-10-13T02:22:45;12.70;95.20
68691;DHT22;55675;49.588;8.640;2022-10-13T02:25:11;12.70;95.20
68691;DHT22;55675;49.588;8.640;2022-10-13T02:30:59;12.60;95.00
68691;DHT22;55675;49.588;8.640;2022-10-13T02:33:24;12.60;95.00
68691;DHT22;55675;49.588;8.640;2022-10-13T02:35:50;12.60;95.10
68691;DHT22;55675;49.588;8.640;2022-10-13T02:38:15;12.60;95.00
68691;DHT22;55675;49.588;8.640;2022-10-13T02:40:41;12.60;95.30
68691;DHT22;55675;49.588;8.640;2022-10-13T02:43:06;12.60;94.90
68691;DHT22;55675;49.588;8.640;2022-10-13T02:45:32;12.50;94.80
68691;DHT22;55675;49.588;8.640;2022-10-13T02:47:58;12.50;94.90
68691;DHT22;55675;49.588;8.640;2022-10-13T02:50:23;12.50;94.90
68691;DHT22;55675;49.588;8.640;2022-10-13T02:52:49;12.50;94.90
68691;DHT22;55675;49.588;8.640;2022-10-13T02:55:14;12.40;94.90
68691;DHT22;55675;49.588;8.640;2022-10-13T02:57:40;12.40;95.00
68691;DHT22;55675;49.588;8.640;2022-10-13T03:00:06;12.40;95.00
68691;DHT22;55675;49.588;8.640;2022-10-13T03:02:32;12.50;94.90
68691;DHT22;55675;49.588;8.640;2022-10-13T03:04:57;12.40;94.90
68691;DHT22;55675;49.588;8.640;2022-10-13T03:07:23;12.40;94.90
68691;DHT22;55675;49.588;8.640;2022-10-13T03:09:48;12.40;94.90
68691;DHT22;55675;49.588;8.640;2022-10-13T03:12:14;12.40;94.90
68691;DHT22;55675;49.588;8.640;2022-10-13T03:14:40;12.40;95.00
68691;DHT22;55675;49.588;8.640;2022-10-13T03:17:05;12.30;95.00
68691;DHT22;55675;49.588;8.640;2022-10-13T03:19:31;12.30;95.00
68691;DHT22;55675;49.588;8.640;2022-10-13T03:21:56;12.30;95.00
68691;DHT22;55675;49.588;8.640;2022-10-13T03:24:22;12.30;95.00
68691;DHT22;55675;49.588;8.640;2022-10-13T03:26:48;12.20;94.90
68691;DHT22;55675;49.588;8.640;2022-10-13T03:29:14;12.20;94.90
68691;DHT22;55675;49.588;8.640;2022-10-13T03:31:41;12.10;95.00
68691;DHT22;55675;49.588;8.640;2022-10-13T03:34:08;12.10;95.10
68691;DHT22;55675;49.588;8.640;2022-10-13T03:36:34;12.10;95.10
68691;DHT22;55675;49.588;8.640;2022-10-13T03:39:00;12.20;95.20
68691;DHT22;55675;49.588;8.640;2022-10-13T03:41:26;12.10;95.20
68691;DHT22;55675;49.588;8.640;2022-10-13T03:43:51;12.20;95.30
68691;DHT22;55675;49.588;8.640;2022-10-13T03:46:17;12.30;95.30
68691;DHT22;55675;49.588;8.640;2022-10-13T03:48:43;12.30;95.30
68691;DHT22;55675;49.588;8.640;2022-10-13T03:51:12;12.40;95.40
68691;DHT22;55675;49.588;8.640;2022-10-13T03:53:38;12.50;95.40
68691;DHT22;55675;49.588;8.640;2022-10-13T03:56:04;12.60;95.40
68691;DHT22;55675;49.588;8.640;2022-10-13T03:58:30;12.60;95.40
68691;DHT22;55675;49.588;8.640;2022-10-13T04:01:00;12.70;95.50
68691;DHT22;55675;49.588;8.640;2022-10-13T04:03:26;12.70;95.40
68691;DHT22;55675;49.588;8.640;2022-10-13T04:05:52;12.80;95.50
68691;DHT22;55675;49.588;8.640;2022-10-13T04:08:17;12.80;95.50
68691;DHT22;55675;49.588;8.640;2022-10-13T04:10:43;12.90;95.50
68691;DHT22;55675;49.588;8.640;2022-10-13T04:13:08;12.90;95.50
68691;DHT22;55675;49.588;8.640;2022-10-13T04:15:40;13.00;95.50
68691;DHT22;55675;49.588;8.640;2022-10-13T04:18:07;13.10;95.40
68691;DHT22;55675;49.588;8.640;2022-10-13T04:20:39;13.10;95.30
68691;DHT22;55675;49.588;8.640;2022-10-13T04:23:05;13.20;95.30
68691;DHT22;55675;49.588;8.640;2022-10-13T04:25:34;13.20;95.40
68691;DHT22;55675;49.588;8.640;2022-10-13T04:28:00;13.20;95.30
68691;DHT22;55675;49.588;8.640;2022-10-13T04:30:26;13.20;95.40
68691;DHT22;55675;49.588;8.640;2022-10-13T04:32:51;13.30;95.40
68691;DHT22;55675;49.588;8.640;2022-10-13T04:35:17;13.30;95.40
68691;DHT22;55675;49.588;8.640;2022-10-13T04:37:42;13.30;95.50
68691;DHT22;55675;49.588;8.640;2022-10-13T04:40:08;13.30;95.50
68691;DHT22;55675;49.588;8.640;2022-10-13T04:42:34;13.40;95.40
68691;DHT22;55675;49.588;8.640;2022-10-13T04:44:59;13.40;95.40
68691;DHT22;55675;49.588;8.640;2022-10-13T04:47:25;13.40;95.50
68691;DHT22;55675;49.588;8.640;2022-10-13T04:49:50;13.40;95.50
68691;DHT22;55675;49.588;8.640;2022-10-13T04:52:16;13.40;95.60
68691;DHT22;55675;49.588;8.640;2022-10-13T04:54:42;13.40;95.60
68691;DHT22;55675;49.588;8.640;2022-10-13T04:57:07;13.40;95.70
68691;DHT22;55675;49.588;8.640;2022-10-13T04:59:33;13.40;95.60
68691;DHT22;55675;49.588;8.640;2022-10-13T05:01:58;13.40;95.50
68691;DHT22;55675;49.588;8.640;2022-10-13T05:04:24;13.40;95.60
68691;DHT22;55675;49.588;8.640;2022-10-13T05:06:49;13.40;95.60
68691;DHT22;55675;49.588;8.640;2022-10-13T05:09:15;13.50;95.50
68691;DHT22;55675;49.588;8.640;2022-10-13T05:11:41;13.50;95.50
68691;DHT22;55675;49.588;8.640;2022-10-13T05:14:06;13.50;95.40
68691;DHT22;55675;49.588;8.640;2022-10-13T05:16:32;13.50;95.30
68691;DHT22;55675;49.588;8.640;2022-10-13T05:18:58;13.50;95.20
68691;DHT22;55675;49.588;8.640;2022-10-13T05:21:26;13.50;95.10
68691;DHT22;55675;49.588;8.640;2022-10-13T05:23:53;13.50;95.00
68691;DHT22;55675;49.588;8.640;2022-10-13T05:26:25;13.50;95.00
68691;DHT22;55675;49.588;8.640;2022-10-13T05:28:54;13.40;94.90
68691;DHT22;55675;49.588;8.640;2022-10-13T05:31:22;13.40;94.90
68691;DHT22;55675;49.588;8.640;2022-10-13T05:33:48;13.30;94.90
68691;DHT22;55675;49.588;8.640;2022-10-13T05:36:22;13.20;94.90
68691;DHT22;55675;49.588;8.640;2022-10-13T05:38:50;13.10;94.80
68691;DHT22;55675;49.588;8.640;2022-10-13T05:41:17;13.10;94.90
68691;DHT22;55675;49.588;8.640;2022-10-13T05:43:42;13.00;95.00
68691;DHT22;55675;49.588;8.640;2022-10-13T05:46:08;13.00;95.00
68691;DHT22;55675;49.588;8.640;2022-10-13T05:48:34;13.00;95.10
68691;DHT22;55675;49.588;8.640;2022-10-13T05:51:04;12.90;95.10
68691;DHT22;55675;49.588;8.640;2022-10-13T05:53:33;13.00;95.20
68691;DHT22;55675;49.588;8.640;2022-10-13T05:56:04;12.90;95.10
68691;DHT22;55675;49.588;8.640;2022-10-13T05:58:38;12.90;95.20
68691;DHT22;55675;49.588;8.640;2022-10-13T06:01:06;12.90;95.20
68691;DHT22;55675;49.588;8.640;2022-10-13T06:03:33;12.90;95.00
68691;DHT22;55675;49.588;8.640;2022-10-13T06:05:59;12.90;95.00
68691;DHT22;55675;49.588;8.640;2022-10-13T06:08:25;12.90;95.30
68691;DHT22;55675;49.588;8.640;2022-10-13T06:10:50;12.80;95.50
68691;DHT22;55675;49.588;8.640;2022-10-13T06:13:16;12.80;96.00
68691;DHT22;55675;49.588;8.640;2022-10-13T06:15:41;12.70;95.70
68691;DHT22;55675;49.588;8.640;2022-10-13T06:18:08;12.70;95.70
68691;DHT22;55675;49.588;8.640;2022-10-13T06:20:34;12.60;95.80
68691;DHT22;55675;49.588;8.640;2022-10-13T06:23:00;12.50;96.00
68691;DHT22;55675;49.588;8.640;2022-10-13T06:25:25;12.50;96.20
68691;DHT22;55675;49.588;8.640;2022-10-13T06:27:51;12.50;96.30
68691;DHT22;55675;49.588;8.640;2022-10-13T06:30:17;12.60;96.40
68691;DHT22;55675;49.588;8.640;2022-10-13T06:32:42;12.70;96.40
68691;DHT22;55675;49.588;8.640;2022-10-13T06:35:08;12.70;96.30
68691;DHT22;55675;49.588;8.640;2022-10-13T06:37:34;12.80;96.30
68691;DHT22;55675;49.588;8.640;2022-10-13T06:39:59;12.90;96.20
68691;DHT22;55675;49.588;8.640;2022-10-13T06:42:25;13.10;96.10
68691;DHT22;55675;49.588;8.640;2022-10-13T06:44:50;13.10;95.70
68691;DHT22;55675;49.588;8.640;2022-10-13T06:47:16;13.20;95.70
68691;DHT22;55675;49.588;8.640;2022-10-13T06:49:41;13.30;95.60
68691;DHT22;55675;49.588;8.640;2022-10-13T06:52:07;13.30;95.50
68691;DHT22;55675;49.588;8.640;2022-10-13T06:54:33;13.50;95.40
68691;DHT22;55675;49.588;8.640;2022-10-13T06:56:59;13.60;95.40
68691;DHT22;55675;49.588;8.640;2022-10-13T06:59:24;13.70;95.30
68691;DHT22;55675;49.588;8.640;2022-10-13T07:01:52;13.90;95.10
68691;DHT22;55675;49.588;8.640;2022-10-13T07:04:17;13.90;94.90
68691;DHT22;55675;49.588;8.640;2022-10-13T07:06:43;14.00;94.70
68691;DHT22;55675;49.588;8.640;2022-10-13T07:09:09;14.00;94.60
68691;DHT22;55675;49.588;8.640;2022-10-13T07:11:34;14.00;94.60
68691;DHT22;55675;49.588;8.640;2022-10-13T07:14:00;14.00;94.60
68691;DHT22;55675;49.588;8.640;2022-10-13T07:16:26;14.10;94.70
68691;DHT22;55675;49.588;8.640;2022-10-13T07:18:51;14.20;94.60
68691;DHT22;55675;49.588;8.640;2022-10-13T07:21:17;14.30;94.60
68691;DHT22;55675;49.588;8.640;2022-10-13T07:23:43;14.50;94.50
68691;DHT22;55675;49.588;8.640;2022-10-13T07:26:10;14.60;94.10
68691;DHT22;55675;49.588;8.640;2022-10-13T07:28:37;14.70;94.00
68691;DHT22;55675;49.588;8.640;2022-10-13T07:31:11;14.70;93.90
68691;DHT22;55675;49.588;8.640;2022-10-13T07:33:39;14.70;93.90
68691;DHT22;55675;49.588;8.640;2022-10-13T07:36:05;14.80;93.80
68691;DHT22;55675;49.588;8.640;2022-10-13T07:38:31;14.90;93.80
68691;DHT22;55675;49.588;8.640;2022-10-13T07:41:00;15.00;93.60
68691;DHT22;55675;49.588;8.640;2022-10-13T07:43:26;15.10;93.30
68691;DHT22;55675;49.588;8.640;2022-10-13T07:45:52;15.20;93.00
68691;DHT22;55675;49.588;8.640;2022-10-13T07:48:17;15.20;93.00
68691;DHT22;55675;49.588;8.640;2022-10-13T07:50:43;15.20;92.60
68691;DHT22;55675;49.588;8.640;2022-10-13T07:53:08;15.20;92.60
68691;DHT22;55675;49.588;8.640;2022-10-13T07:55:34;15.30;92.60
68691;DHT22;55675;49.588;8.640;2022-10-13T07:58:01;15.30;92.70
68691;DHT22;55675;49.588;8.640;2022-10-13T08:00:26;15.50;92.70
68691;DHT22;55675;49.588;8.640;2022-10-13T08:02:52;15.60;92.60
68691;DHT22;55675;49.588;8.640;2022-10-13T08:05:18;15.70;92.30
68691;DHT22;55675;49.588;8.640;2022-10-13T08:07:43;16.00;92.10
68691;DHT22;55675;49.588;8.640;2022-10-13T08:10:09;16.10;91.50
68691;DHT22;55675;49.588;8.640;2022-10-13T08:12:35;16.20;91.30
68691;DHT22;55675;49.588;8.640;2022-10-13T08:15:02;16.40;90.70
68691;DHT22;55675;49.588;8.640;2022-10-13T08:17:27;16.40;90.30
68691;DHT22;55675;49.588;8.640;2022-10-13T08:19:53;16.40;90.10
68691;DHT22;55675;49.588;8.640;2022-10-13T08:22:19;16.40;90.20
68691;DHT22;55675;49.588;8.640;2022-10-13T08:24:44;16.50;90.30
68691;DHT22;55675;49.588;8.640;2022-10-13T08:27:15;16.60;90.20
68691;DHT22;55675;49.588;8.640;2022-10-13T08:29:43;16.70;89.60
68691;DHT22;55675;49.588;8.640;2022-10-13T08:32:08;16.70;90.00
68691;DHT22;55675;49.588;8.640;2022-10-13T08:34:34;16.90;89.90
68691;DHT22;55675;49.588;8.640;2022-10-13T08:37:01;17.00;89.00
68691;DHT22;55675;49.588;8.640;2022-10-13T08:39:27;16.90;87.60
68691;DHT22;55675;49.588;8.640;2022-10-13T08:41:53;16.90;88.00
68691;DHT22;55675;49.588;8.640;2022-10-13T08:44:21;17.00;88.30
68691;DHT22;55675;49.588;8.640;2022-10-13T08:46:58;16.90;88.20
68691;DHT22;55675;49.588;8.640;2022-10-13T08:49:26;17.00;88.20
68691;DHT22;55675;49.588;8.640;2022-10-13T08:51:52;17.00;86.80
68691;DHT22;55675;49.588;8.640;2022-10-13T08:54:20;16.90;87.10
68691;DHT22;55675;49.588;8.640;2022-10-13T08:56:46;16.80;87.40
68691;DHT22;55675;49.588;8.640;2022-10-13T08:59:15;16.70;87.80
68691;DHT22;55675;49.588;8.640;2022-10-13T09:01:42;16.60;88.60
68691;DHT22;55675;49.588;8.640;2022-10-13T09:04:27;16.40;89.10
68691;DHT22;55675;49.588;8.640;2022-10-13T09:07:12;16.30;90.00
68691;DHT22;55675;49.588;8.640;2022-10-13T09:09:40;16.20;90.40
68691;DHT22;55675;49.588;8.640;2022-10-13T09:12:06;16.10;90.70
68691;DHT22;55675;49.588;8.640;2022-10-13T09:14:34;16.00;90.80
68691;DHT22;55675;49.588;8.640;2022-10-13T09:17:22;15.90;91.10
68691;DHT22;55675;49.588;8.640;2022-10-13T09:20:17;15.80;91.40
68691;DHT22;55675;49.588;8.640;2022-10-13T09:22:44;15.90;91.50
68691;DHT22;55675;49.588;8.640;2022-10-13T09:25:24;15.90;91.60
68691;DHT22;55675;49.588;8.640;2022-10-13T09:27:52;16.00;91.70
68691;DHT22;55675;49.588;8.640;2022-10-13T09:30:40;16.10;91.70
68691;DHT22;55675;49.588;8.640;2022-10-13T09:33:13;16.20;91.70
68691;DHT22;55675;49.588;8.640;2022-10-13T09:36:07;16.30;91.60
68691;DHT22;55675;49.588;8.640;2022-10-13T09:38:35;16.40;91.60
68691;DHT22;55675;49.588;8.640;2022-10-13T09:43:39;16.70;91.20
68691;DHT22;55675;49.588;8.640;2022-10-13T09:46:18;16.80;91.00
68691;DHT22;55675;49.588;8.640;2022-10-13T09:48:48;16.80;90.50
68691;DHT22;55675;49.588;8.640;2022-10-13T09:54:03;17.00;90.30
68691;DHT22;55675;49.588;8.640;2022-10-13T09:56:40;17.00;89.80
68691;DHT22;55675;49.588;8.640;2022-10-13T09:59:15;17.00;90.00
68691;DHT22;55675;49.588;8.640;2022-10-13T10:01:46;17.00;90.20
68691;DHT22;55675;49.588;8.640;2022-10-13T10:04:22;17.00;89.90
68691;DHT22;55675;49.588;8.640;2022-10-13T10:06:50;17.00;89.80
68691;DHT22;55675;49.588;8.640;2022-10-13T10:11:49;17.00;89.30
68691;DHT22;55675;49.588;8.640;2022-10-13T10:14:30;17.10;89.70
68691;DHT22;55675;49.588;8.640;2022-10-13T10:19:47;17.20;89.80
68691;DHT22;55675;49.588;8.640;2022-10-13T10:22:33;17.30;89.30
68691;DHT22;55675;49.588;8.640;2022-10-13T10:25:11;17.30;89.10
68691;DHT22;55675;49.588;8.640;2022-10-13T10:30:24;17.30;89.50
68691;DHT22;55675;49.588;8.640;2022-10-13T10:32:57;17.20;90.00
68691;DHT22;55675;49.588;8.640;2022-10-13T10:35:57;17.10;90.20
68691;DHT22;55675;49.588;8.640;2022-10-13T10:44:06;16.80;90.40
68691;DHT22;55675;49.588;8.640;2022-10-13T10:46:41;16.70;90.30
68691;DHT22;55675;49.588;8.640;2022-10-13T10:49:31;16.60;90.60
68691;DHT22;55675;49.588;8.640;2022-10-13T10:52:04;16.50;90.60
68691;DHT22;55675;49.588;8.640;2022-10-13T11:04:45;16.80;91.10
68691;DHT22;55675;49.588;8.640;2022-10-13T11:15:09;17.20;90.80
68691;DHT22;55675;49.588;8.640;2022-10-13T11:17:37;17.40;90.60
68691;DHT22;55675;49.588;8.640;2022-10-13T11:25:44;18.60;89.70
68691;DHT22;55675;49.588;8.640;2022-10-13T11:30:52;19.40;86.30
68691;DHT22;55675;49.588;8.640;2022-10-13T11:36:35;20.10;82.80
68691;DHT22;55675;49.588;8.640;2022-10-13T11:39:33;20.40;80.00
68691;DHT22;55675;49.588;8.640;2022-10-13T11:42:21;20.70;80.10
68691;DHT22;55675;49.588;8.640;2022-10-13T11:45:02;20.80;79.20
68691;DHT22;55675;49.588;8.640;2022-10-13T11:50:41;20.90;77.10
68691;DHT22;55675;49.588;8.640;2022-10-13T11:53:16;20.90;76.40
68691;DHT22;55675;49.588;8.640;2022-10-13T11:55:54;20.80;76.30
68691;DHT22;55675;49.588;8.640;2022-10-13T11:58:31;20.70;76.50
68691;DHT22;55675;49.588;8.640;2022-10-13T12:01:02;20.60;75.90
68691;DHT22;55675;49.588;8.640;2022-10-13T12:03:39;20.60;76.20
68691;DHT22;55675;49.588;8.640;2022-10-13T12:06:24;20.80;75.40
68691;DHT22;55675;49.588;8.640;2022-10-13T12:08:56;21.00;74.30
68691;DHT22;55675;49.588;8.640;2022-10-13T12:11:28;21.40;73.50
68691;DHT22;55675;49.588;8.640;2022-10-13T12:13:55;21.60;72.40
68691;DHT22;55675;49.588;8.640;2022-10-13T12:16:21;21.70;71.90
68691;DHT22;55675;49.588;8.640;2022-10-13T12:18:47;21.70;71.40
68691;DHT22;55675;49.588;8.640;2022-10-13T12:21:19;21.60;70.20
68691;DHT22;55675;49.588;8.640;2022-10-13T12:23:46;21.50;70.70
68691;DHT22;55675;49.588;8.640;2022-10-13T12:26:22;21.30;71.50
68691;DHT22;55675;49.588;8.640;2022-10-13T12:28:54;21.20;71.80
68691;DHT22;55675;49.588;8.640;2022-10-13T12:31:22;21.00;71.70
68691;DHT22;55675;49.588;8.640;2022-10-13T12:33:56;20.90;72.90
68691;DHT22;55675;49.588;8.640;2022-10-13T12:36:30;20.80;72.40
68691;DHT22;55675;49.588;8.640;2022-10-13T12:39:09;20.70;72.30
68691;DHT22;55675;49.588;8.640;2022-10-13T12:41:42;20.50;73.50
68691;DHT22;55675;49.588;8.640;2022-10-13T12:44:29;20.30;74.80
68691;DHT22;55675;49.588;8.640;2022-10-13T12:46:57;20.20;74.80
68691;DHT22;55675;49.588;8.640;2022-10-13T12:49:27;20.10;75.30
68691;DHT22;55675;49.588;8.640;2022-10-13T12:54:26;19.60;76.00
68691;DHT22;55675;49.588;8.640;2022-10-13T12:56:55;19.40;77.90
68691;DHT22;55675;49.588;8.640;2022-10-13T12:59:21;19.30;78.20
68691;DHT22;55675;49.588;8.640;2022-10-13T13:01:59;19.10;77.90
68691;DHT22;55675;49.588;8.640;2022-10-13T13:06:58;18.80;79.90
68691;DHT22;55675;49.588;8.640;2022-10-13T13:09:26;18.70;80.60
68691;DHT22;55675;49.588;8.640;2022-10-13T13:12:28;18.70;80.70
68691;DHT22;55675;49.588;8.640;2022-10-13T13:14:55;18.70;81.90
68691;DHT22;55675;49.588;8.640;2022-10-13T13:17:22;18.80;82.00
68691;DHT22;55675;49.588;8.640;2022-10-13T13:19:50;19.00;81.40
68691;DHT22;55675;49.588;8.640;2022-10-13T13:22:16;19.10;81.20
68691;DHT22;55675;49.588;8.640;2022-10-13T13:24:42;19.20;79.70
68691;DHT22;55675;49.588;8.640;2022-10-13T13:27:18;19.10;80.50
68691;DHT22;55675;49.588;8.640;2022-10-13T13:29:45;19.10;81.00
68691;DHT22;55675;49.588;8.640;2022-10-13T13:32:12;19.10;80.70
68691;DHT22;55675;49.588;8.640;2022-10-13T13:34:37;19.10;80.60
68691;DHT22;55675;49.588;8.640;2022-10-13T13:37:03;19.20;80.90
68691;DHT22;55675;49.588;8.640;2022-10-13T13:39:29;19.20;80.50
68691;DHT22;55675;49.588;8.640;2022-10-13T13:41:54;19.20;80.50
68691;DHT22;55675;49.588;8.640;2022-10-13T13:44:20;19.30;80.10
68691;DHT22;55675;49.588;8.640;2022-10-13T13:46:45;19.30;80.40
68691;DHT22;55675;49.588;8.640;2022-10-13T13:49:11;19.30;80.20
68691;DHT22;55675;49.588;8.640;2022-10-13T13:51:36;19.40;80.20
68691;DHT22;55675;49.588;8.640;2022-10-13T13:54:03;19.50;80.20
68691;DHT22;55675;49.588;8.640;2022-10-13T13:56:28;19.70;79.70
68691;DHT22;55675;49.588;8.640;2022-10-13T13:58:54;20.00;79.40
68691;DHT22;55675;49.588;8.640;2022-10-13T14:01:19;20.30;77.50
68691;DHT22;55675;49.588;8.640;2022-10-13T14:03:45;20.50;75.10
68691;DHT22;55675;49.588;8.640;2022-10-13T14:06:18;20.50;74.90
68691;DHT22;55675;49.588;8.640;2022-10-13T14:08:44;20.50;74.50
68691;DHT22;55675;49.588;8.640;2022-10-13T14:11:10;20.50;74.40
68691;DHT22;55675;49.588;8.640;2022-10-13T14:13:36;20.50;74.50
68691;DHT22;55675;49.588;8.640;2022-10-13T14:16:01;20.40;74.10
68691;DHT22;55675;49.588;8.640;2022-10-13T14:18:27;20.30;74.40
68691;DHT22;55675;49.588;8.640;2022-10-13T14:20:53;20.10;74.90
68691;DHT22;55675;49.588;8.640;2022-10-13T14:23:19;20.00;75.50
68691;DHT22;55675;49.588;8.640;2022-10-13T14:25:44;19.90;76.00
68691;DHT22;55675;49.588;8.640;2022-10-13T14:28:10;19.80;76.30
68691;DHT22;55675;49.588;8.640;2022-10-13T14:30:39;19.70;76.80
68691;DHT22;55675;49.588;8.640;2022-10-13T14:33:05;19.60;77.40
68691;DHT22;55675;49.588;8.640;2022-10-13T14:35:31;19.50;78.00
68691;DHT22;55675;49.588;8.640;2022-10-13T14:37:56;19.50;78.40
68691;DHT22;55675;49.588;8.640;2022-10-13T14:40:22;19.40;78.70
68691;DHT22;55675;49.588;8.640;2022-10-13T14:42:47;19.40;79.50
68691;DHT22;55675;49.588;8.640;2022-10-13T14:45:13;19.30;79.90
68691;DHT22;55675;49.588;8.640;2022-10-13T14:47:40;19.30;80.20
68691;DHT22;55675;49.588;8.640;2022-10-13T14:50:06;19.30;80.30
68691;DHT22;55675;49.588;8.640;2022-10-13T14:52:32;19.20;80.10
68691;DHT22;55675;49.588;8.640;2022-10-13T14:54:58;19.10;80.10
68691;DHT22;55675;49.588;8.640;2022-10-13T14:57:23;19.00;80.80
68691;DHT22;55675;49.588;8.640;2022-10-13T14:59:49;18.90;80.70
68691;DHT22;55675;49.588;8.640;2022-10-13T15:02:14;18.90;81.50
68691;DHT22;55675;49.588;8.640;2022-10-13T15:04:40;18.80;82.20
68691;DHT22;55675;49.588;8.640;2022-10-13T15:07:06;18.70;82.70
68691;DHT22;55675;49.588;8.640;2022-10-13T15:09:32;18.70;82.70
68691;DHT22;55675;49.588;8.640;2022-10-13T15:11:57;18.70;83.10
68691;DHT22;55675;49.588;8.640;2022-10-13T15:14:23;18.70;83.00
68691;DHT22;55675;49.588;8.640;2022-10-13T15:16:48;18.60;83.20
68691;DHT22;55675;49.588;8.640;2022-10-13T15:19:14;18.60;83.40
68691;DHT22;55675;49.588;8.640;2022-10-13T15:21:39;18.60;83.70
68691;DHT22;55675;49.588;8.640;2022-10-13T15:24:05;18.70;83.90
68691;DHT22;55675;49.588;8.640;2022-10-13T15:26:31;18.70;84.40
68691;DHT22;55675;49.588;8.640;2022-10-13T15:28:57;18.70;84.60
68691;DHT22;55675;49.588;8.640;2022-10-13T15:31:22;18.80;84.90
68691;DHT22;55675;49.588;8.640;2022-10-13T15:33:50;18.80;84.80
68691;DHT22;55675;49.588;8.640;2022-10-13T15:36:17;18.80;84.60
68691;DHT22;55675;49.588;8.640;2022-10-13T15:38:44;18.80;84.80
68691;DHT22;55675;49.588;8.640;2022-10-13T15:41:10;18.80;84.40
68691;DHT22;55675;49.588;8.640;2022-10-13T15:43:36;18.80;84.70
68691;DHT22;55675;49.588;8.640;2022-10-13T15:46:05;18.70;85.30
68691;DHT22;55675;49.588;8.640;2022-10-13T15:48:32;18.70;85.30
68691;DHT22;55675;49.588;8.640;2022-10-13T15:50:58;18.70;85.50
68691;DHT22;55675;49.588;8.640;2022-10-13T15:53:24;18.70;85.70
68691;DHT22;55675;49.588;8.640;2022-10-13T15:55:49;18.70;85.50
68691;DHT22;55675;49.588;8.640;2022-10-13T15:58:15;18.60;85.90
68691;DHT22;55675;49.588;8.640;2022-10-13T16:00:42;18.60;86.00
68691;DHT22;55675;49.588;8.640;2022-10-13T16:03:13;18.50;85.90
68691;DHT22;55675;49.588;8.640;2022-10-13T16:05:40;18.40;85.70
68691;DHT22;55675;49.588;8.640;2022-10-13T16:08:06;18.40;85.60
68691;DHT22;55675;49.588;8.640;2022-10-13T16:10:32;18.40;85.70
68691;DHT22;55675;49.588;8.640;2022-10-13T16:12:58;18.30;85.80
68691;DHT22;55675;49.588;8.640;2022-10-13T16:15:23;18.20;86.10
68691;DHT22;55675;49.588;8.640;2022-10-13T16:17:50;18.30;86.60
68691;DHT22;55675;49.588;8.640;2022-10-13T16:20:16;18.20;87.10
68691;DHT22;55675;49.588;8.640;2022-10-13T16:22:42;18.10;87.90
68691;DHT22;55675;49.588;8.640;2022-10-13T16:25:08;18.00;88.20
68691;DHT22;55675;49.588;8.640;2022-10-13T16:27:35;17.90;89.10
68691;DHT22;55675;49.588;8.640;2022-10-13T16:30:01;17.80;89.80
68691;DHT22;55675;49.588;8.640;2022-10-13T16:32:26;17.70;90.20
68691;DHT22;55675;49.588;8.640;2022-10-13T16:34:52;17.60;90.30
68691;DHT22;55675;49.588;8.640;2022-10-13T16:37:18;17.60;90.70
68691;DHT22;55675;49.588;8.640;2022-10-13T16:39:44;17.50;90.80
68691;DHT22;55675;49.588;8.640;2022-10-13T16:42:09;17.50;90.90
68691;DHT22;55675;49.588;8.640;2022-10-13T16:44:35;17.50;91.10
68691;DHT22;55675;49.588;8.640;2022-10-13T16:47:00;17.50;91.20
68691;DHT22;55675;49.588;8.640;2022-10-13T16:49:29;17.40;91.40
68691;DHT22;55675;49.588;8.640;2022-10-13T16:51:55;17.40;91.60
68691;DHT22;55675;49.588;8.640;2022-10-13T16:54:20;17.30;91.80
68691;DHT22;55675;49.588;8.640;2022-10-13T16:56:46;17.30;92.10
68691;DHT22;55675;49.588;8.640;2022-10-13T16:59:12;17.30;92.10
68691;DHT22;55675;49.588;8.640;2022-10-13T17:01:37;17.30;92.20
68691;DHT22;55675;49.588;8.640;2022-10-13T17:04:04;17.30;92.10